This is the latest recevied weather packets stored in our database for station/object AL7BX-WX. If no packets are shown the sender has not sent any weather packets the latest 10 day(s).
| Time | Temp. | Humidity | Pressure | Rain* | Wind** | Luminosity | Snow |
|---|---|---|---|---|---|---|---|
| 1777420803 | 15.56° C | 34% | 0 hPa | 0 mm | - | - | - |
| 1777419363 | 16.11° C | 33% | 0 hPa | 0 mm | - | - | - |
| 1777417204 | 17.22° C | 31% | 0 hPa | 0 mm | - | - | - |
| 1777416843 | 16.67° C | 32% | 0 hPa | 0 mm | - | - | - |
| 1777409643 | 16.11° C | 34% | 0 hPa | 0 mm | - | - | - |
| 1777407483 | 14.44° C | 40% | 0 hPa | 0 mm | - | - | - |
| 1777406943 | 14.44° C | 41% | 0 hPa | 0 mm | - | - | - |
| 1777406403 | 15.56° C | 42% | 0 hPa | 0 mm | - | - | - |
| 1777402803 | 13.89° C | 41% | 0 hPa | 0 mm | - | - | - |
| 1777392543 | 8.89° C | 63% | 0 hPa | 0 mm | - | - | - |
| 1777390023 | 6.11° C | 70% | 0 hPa | 0 mm | - | - | - |
| 1777389074 | 5.56° C | 75% | 0 hPa | 0 mm | - | - | - |
| 1777385343 | 0.56° C | 84% | 0 hPa | 0 mm | - | - | - |
| 1777383903 | -0.56° C | 85% | 0 hPa | 0 mm | - | - | - |
| 1777380433 | -1.67° C | 83% | 0 hPa | 0 mm | - | - | - |
| 1777379223 | -1.11° C | 82% | 0 hPa | 0 mm | - | - | - |
| 1777375083 | -0.56° C | 81% | 0 hPa | 0 mm | - | - | - |
| 1777372023 | 0° C | 77% | 0 hPa | 0 mm | - | - | - |
| 1777371483 | 0° C | 77% | 0 hPa | 0 mm | - | - | - |
| 1777368964 | 2.22° C | 74% | 0 hPa | 0 mm | - | - | - |
| 1777367883 | 2.78° C | 75% | 0 hPa | 0 mm | - | - | - |
| 1777367343 | 2.78° C | 75% | 0 hPa | 0 mm | - | - | - |
| 1777364823 | 2.22° C | 77% | 0 hPa | 0 mm | - | - | - |
| 1777359734 | 3.89° C | 72% | 0 hPa | 0 mm | - | - | - |
| 1777359243 | 3.89° C | 71% | 0 hPa | 0 mm | - | - | - |
* Rain latest hour (hover to see other rain measurements)
** Current wind speed in m/s (hover to see current wind gust speed)